Time;durP1;ratioP1;P1;durP2;ratioP2;P2;SDS_P1;SDS_P2;PMS_P1;PMS_P2;Temp;Humidity;BMP_temperature;BMP_pressure;BME280_temperature;BME280_humidity;BME280_pressure;Samples;Min_cycle;Max_cycle;Signal;HPM_P1;HPM_P2
2022/09/30 00:04:22;;;;;;;20.17;9.07;;;;;;;;;;10300140;28;20026;-78
2022/09/30 00:09:23;;;;;;;22.35;11.73;;;;;;;;;;10298233;28;20054;-74
2022/09/30 00:14:23;;;;;;;23.65;10.15;;;;;;;;;;10298235;28;20080;-76
2022/09/30 00:19:23;;;;;;;29.77;13.10;;;;;;;;;;10297562;28;20041;-74
2022/09/30 00:24:23;;;;;;;31.48;11.40;;;;;;;;;;10297433;28;20088;-77
2022/09/30 00:29:24;;;;;;;29.63;11.45;;;;;;;;;;10299441;28;20034;-77
2022/09/30 00:34:24;;;;;;;22.75;11.90;;;;;;;;;;10297593;28;20058;-79
2022/09/30 00:39:26;;;;;;;21.75;10.23;;;;;;;;;;10297052;28;20055;-78
2022/09/30 00:44:44;;;;;;;21.67;10.52;;;;;;;;;;10296819;28;20050;-78
2022/09/30 00:49:44;;;;;;;;;;;;;;;;;;10320161;28;20082;-79
2022/09/30 00:54:45;;;;;;;18.13;9.63;;;;;;;;;;10321671;28;19913;-78
2022/09/30 00:59:47;;;;;;;18.10;9.43;;;;;;;;;;10306338;28;20407;-77
2022/09/30 01:04:47;;;;;;;17.38;8.77;;;;;;;;;;10310509;28;20416;-77
2022/09/30 01:09:48;;;;;;;16.98;8.95;;;;;;;;;;10305251;28;20058;-76
2022/09/30 01:14:52;;;;;;;17.55;9.90;;;;;;;;;;10307387;28;20239;-74
2022/09/30 01:19:57;;;;;;;19.88;9.68;;;;;;;;;;10309095;28;20030;-73
2022/09/30 01:24:57;;;;;;;15.80;7.57;;;;;;;;;;10303872;28;20116;-74
2022/09/30 01:29:57;;;;;;;18.30;7.95;;;;;;;;;;10305551;28;20033;-78
2022/09/30 01:35:05;;;;;;;14.40;7.78;;;;;;;;;;10305304;28;20018;-81
2022/09/30 01:40:24;;;;;;;17.83;8.20;;;;;;;;;;10303245;28;20439;-77
2022/09/30 01:45:27;;;;;;;12.60;7.90;;;;;;;;;;10309592;28;20057;-75
2022/09/30 01:50:49;;;;;;;17.77;8.88;;;;;;;;;;10306540;28;20416;-80
2022/09/30 01:55:54;;;;;;;18.98;8.75;;;;;;;;;;10309363;28;20021;-79
2022/09/30 02:00:58;;;;;;;16.77;8.57;;;;;;;;;;10325236;28;20365;-74
2022/09/30 02:06:04;;;;;;;18.63;8.40;;;;;;;;;;10302912;28;20065;-74
2022/09/30 02:11:08;;;;;;;16.10;7.90;;;;;;;;;;10305740;28;20069;-78
2022/09/30 02:16:13;;;;;;;14.68;8.27;;;;;;;;;;10301978;28;20135;-79
2022/09/30 02:21:16;;;;;;;14.35;8.13;;;;;;;;;;10304254;28;20671;-78
2022/09/30 02:26:23;;;;;;;14.30;8.13;;;;;;;;;;10324014;28;20022;-79
2022/09/30 02:31:25;;;;;;;14.73;7.85;;;;;;;;;;10309828;28;20133;-77
2022/09/30 02:36:32;;;;;;;15.43;8.60;;;;;;;;;;10301020;28;20033;-78
2022/09/30 02:41:35;;;;;;;16.83;8.00;;;;;;;;;;10316888;28;20452;-75
2022/09/30 02:46:35;;;;;;;22.40;8.45;;;;;;;;;;10301879;28;20452;-77
2022/09/30 02:51:48;;;;;;;22.73;9.43;;;;;;;;;;10306288;28;20058;-80
2022/09/30 02:57:02;;;;;;;18.30;8.23;;;;;;;;;;10307967;28;20022;-78
2022/09/30 03:02:02;;;;;;;14.55;8.38;;;;;;;;;;10302787;28;20084;-77
2022/09/30 03:07:02;;;;;;;18.37;8.20;;;;;;;;;;10299797;28;20029;-74
2022/09/30 03:12:35;;;;;;;18.92;9.10;;;;;;;;;;10308366;28;20301;-75
2022/09/30 03:17:44;;;;;;;21.67;10.13;;;;;;;;;;10281688;28;20507;-75
2022/09/30 03:23:07;;;;;;;33.22;12.80;;;;;;;;;;10306425;28;20025;-75
2022/09/30 03:28:19;;;;;;;32.97;13.43;;;;;;;;;;10299924;28;20025;-78
2022/09/30 03:33:26;;;;;;;34.38;14.80;;;;;;;;;;10313312;28;20057;-78
2022/09/30 03:38:32;;;;;;;64.78;14.00;;;;;;;;;;10298910;28;20084;-76
2022/09/30 03:43:36;;;;;;;62.70;14.98;;;;;;;;;;10302100;28;20060;-77
2022/09/30 03:48:37;;;;;;;61.15;15.63;;;;;;;;;;10302850;28;20058;-77
2022/09/30 03:53:41;;;;;;;78.65;13.50;;;;;;;;;;10297322;28;20036;-78
2022/09/30 03:58:43;;;;;;;66.53;15.25;;;;;;;;;;10300153;28;20513;-74
2022/09/30 04:03:43;;;;;;;105.32;13.98;;;;;;;;;;10302932;28;20034;-80
2022/09/30 04:08:43;;;;;;;79.53;13.52;;;;;;;;;;10305438;28;20500;-78
2022/09/30 04:13:44;;;;;;;72.60;14.43;;;;;;;;;;10306637;28;20041;-79
2022/09/30 04:18:44;;;;;;;112.95;13.48;;;;;;;;;;10307745;28;20034;-82
2022/09/30 04:23:44;;;;;;;73.28;13.45;;;;;;;;;;10301775;28;20564;-77
2022/09/30 04:28:45;;;;;;;103.85;14.35;;;;;;;;;;10299265;28;20104;-79
2022/09/30 04:33:45;;;;;;;71.40;13.65;;;;;;;;;;10304068;28;20034;-81
2022/09/30 04:38:46;;;;;;;72.93;15.23;;;;;;;;;;10305574;28;20520;-79
2022/09/30 04:43:47;;;;;;;47.05;13.40;;;;;;;;;;10299566;28;20645;-77
2022/09/30 04:48:47;;;;;;;91.50;14.85;;;;;;;;;;10298819;28;20026;-76
2022/09/30 04:53:48;;;;;;;64.40;14.25;;;;;;;;;;10300909;28;20049;-83
2022/09/30 04:58:48;;;;;;;55.03;14.83;;;;;;;;;;10300900;28;20043;-79
2022/09/30 05:03:49;;;;;;;51.70;16.70;;;;;;;;;;10300146;28;20573;-74
2022/09/30 05:08:49;;;;;;;59.47;15.20;;;;;;;;;;10301356;28;20026;-78
2022/09/30 05:13:50;;;;;;;73.32;15.30;;;;;;;;;;10296914;28;20030;-74
2022/09/30 05:18:50;;;;;;;44.83;17.00;;;;;;;;;;10291719;28;20465;-80
2022/09/30 05:23:52;;;;;;;72.20;18.33;;;;;;;;;;10293030;28;20061;-79
2022/09/30 05:28:53;;;;;;;68.18;16.70;;;;;;;;;;10293474;28;20015;-78
2022/09/30 05:33:54;;;;;;;57.63;20.42;;;;;;;;;;10302503;28;20022;-78
2022/09/30 05:38:54;;;;;;;56.10;21.23;;;;;;;;;;10306564;28;20042;-79
2022/09/30 05:43:54;;;;;;;61.47;20.60;;;;;;;;;;10311609;28;20062;-78
2022/09/30 05:48:55;;;;;;;53.13;18.48;;;;;;;;;;10306796;28;20049;-77
2022/09/30 05:53:55;;;;;;;60.15;16.65;;;;;;;;;;10305564;28;20027;-75
2022/09/30 05:58:56;;;;;;;49.75;19.40;;;;;;;;;;10307912;28;20022;-75
2022/09/30 06:03:56;;;;;;;54.28;18.77;;;;;;;;;;10303170;28;20014;-76
2022/09/30 06:08:56;;;;;;;63.65;20.52;;;;;;;;;;10305448;28;20046;-83
2022/09/30 06:13:57;;;;;;;60.53;18.88;;;;;;;;;;10307157;28;20034;-76
2022/09/30 06:18:58;;;;;;;51.92;20.15;;;;;;;;;;10302881;28;20025;-75
2022/09/30 06:23:58;;;;;;;45.63;16.85;;;;;;;;;;10301735;28;20382;-81
2022/09/30 06:28:58;;;;;;;37.93;16.90;;;;;;;;;;10301960;28;20022;-76
2022/09/30 06:34:00;;;;;;;31.50;15.38;;;;;;;;;;10301258;28;20018;-75
2022/09/30 06:39:01;;;;;;;39.28;16.27;;;;;;;;;;10304741;28;20527;-75
2022/09/30 06:44:02;;;;;;;34.22;13.85;;;;;;;;;;10303049;28;20026;-82
2022/09/30 06:49:03;;;;;;;29.53;11.60;;;;;;;;;;10300177;28;20026;-78
2022/09/30 06:54:03;;;;;;;19.40;10.05;;;;;;;;;;10301077;28;20297;-79
2022/09/30 06:59:03;;;;;;;23.40;10.40;;;;;;;;;;10300921;28;20405;-76
2022/09/30 07:04:08;;;;;;;24.35;11.10;;;;;;;;;;10298945;28;20441;-78
2022/09/30 07:09:09;;;;;;;25.05;13.48;;;;;;;;;;10322908;28;20039;-78
2022/09/30 07:14:12;;;;;;;32.60;14.38;;;;;;;;;;10303410;28;20493;-81
2022/09/30 07:19:13;;;;;;;36.55;14.82;;;;;;;;;;10309242;28;20022;-74
2022/09/30 07:24:13;;;;;;;35.42;16.65;;;;;;;;;;10305562;28;20125;-75
2022/09/30 07:29:14;;;;;;;36.22;18.17;;;;;;;;;;10303888;28;20531;-78
2022/09/30 07:34:14;;;;;;;45.75;18.42;;;;;;;;;;10299240;28;20259;-74
2022/09/30 07:39:14;;;;;;;28.55;15.90;;;;;;;;;;10299347;28;20485;-79
2022/09/30 07:44:15;;;;;;;32.85;15.95;;;;;;;;;;10298685;28;20018;-74
2022/09/30 07:49:23;;;;;;;32.28;15.80;;;;;;;;;;10298182;28;20077;-78
2022/09/30 07:54:24;;;;;;;48.60;32.70;;;;;;;;;;10296053;28;20018;-80
2022/09/30 07:59:26;;;;;;;18.20;9.38;;;;;;;;;;10293706;28;20189;-78
2022/09/30 08:04:26;;;;;;;24.63;11.43;;;;;;;;;;10298628;28;20026;-79
2022/09/30 08:09:28;;;;;;;21.13;9.75;;;;;;;;;;10300604;28;20042;-79
2022/09/30 08:14:28;;;;;;;18.20;10.32;;;;;;;;;;10298492;28;20034;-78
2022/09/30 08:19:29;;;;;;;20.00;6.53;;;;;;;;;;10299966;28;20489;-80
2022/09/30 08:24:29;;;;;;;14.93;4.80;;;;;;;;;;10305330;28;20018;-75
2022/09/30 08:29:29;;;;;;;13.20;5.10;;;;;;;;;;10321272;23;20042;-74
2022/09/30 08:34:33;;;;;;;10.27;5.32;;;;;;;;;;10296980;28;20032;-80
2022/09/30 08:39:34;;;;;;;10.88;5.85;;;;;;;;;;10301068;28;20022;-83
2022/09/30 08:44:47;;;;;;;14.93;6.10;;;;;;;;;;10313464;28;20624;-83
2022/09/30 08:50:03;;;;;;;26.30;7.80;;;;;;;;;;10315049;28;20054;-81
2022/09/30 08:55:04;;;;;;;19.85;6.18;;;;;;;;;;10314847;28;20682;-74
2022/09/30 09:00:09;;;;;;;14.25;6.32;;;;;;;;;;10315000;28;20053;-76
2022/09/30 09:05:15;;;;;;;18.83;5.18;;;;;;;;;;10316183;28;20030;-78
2022/09/30 09:10:38;;;;;;;11.63;5.50;;;;;;;;;;10332669;28;20020;-81
2022/09/30 09:15:51;;;;;;;13.88;5.07;;;;;;;;;;10314807;28;20116;-81
2022/09/30 09:20:56;;;;;;;17.45;5.68;;;;;;;;;;10322015;28;20041;-75
2022/09/30 09:25:57;;;;;;;13.65;5.97;;;;;;;;;;10322654;28;20022;-81
2022/09/30 09:30:58;;;;;;;18.87;5.47;;;;;;;;;;10322092;28;20069;-80
2022/09/30 09:36:04;;;;;;;16.35;4.68;;;;;;;;;;10322090;28;20092;-79
2022/09/30 09:41:05;;;;;;;10.67;4.73;;;;;;;;;;10319936;28;20064;-78
2022/09/30 09:46:12;;;;;;;11.43;4.13;;;;;;;;;;10321364;28;20904;-76
2022/09/30 09:51:31;;;;;;;8.10;3.65;;;;;;;;;;10320104;28;20030;-82
2022/09/30 09:56:32;;;;;;;8.80;4.07;;;;;;;;;;10320172;28;20053;-80
2022/09/30 10:01:33;;;;;;;4.60;2.80;;;;;;;;;;10321074;28;20117;-78
2022/09/30 10:06:51;;;;;;;8.18;3.30;;;;;;;;;;10318450;28;20121;-74
2022/09/30 10:12:11;;;;;;;4.45;2.80;;;;;;;;;;10320337;28;20058;-79
2022/09/30 10:17:19;;;;;;;8.73;2.50;;;;;;;;;;10308502;28;20031;-81
2022/09/30 10:22:24;;;;;;;8.20;2.45;;;;;;;;;;10319132;28;20026;-80
2022/09/30 10:27:29;;;;;;;7.10;2.28;;;;;;;;;;10318201;28;20026;-81
2022/09/30 10:32:30;;;;;;;4.32;1.90;;;;;;;;;;10319697;28;20050;-83
2022/09/30 10:37:31;;;;;;;6.88;1.85;;;;;;;;;;10317979;28;20102;-80
2022/09/30 10:42:32;;;;;;;9.65;2.20;;;;;;;;;;10318827;28;20551;-79
2022/09/30 10:47:33;;;;;;;6.80;2.08;;;;;;;;;;10319440;28;20029;-75
2022/09/30 10:52:46;;;;;;;3.97;2.30;;;;;;;;;;10320389;28;20029;-80
2022/09/30 10:57:47;;;;;;;8.82;2.80;;;;;;;;;;10319618;28;20368;-79
2022/09/30 11:02:56;;;;;;;5.90;1.80;;;;;;;;;;10318098;28;20034;-75
2022/09/30 11:07:57;;;;;;;3.53;1.63;;;;;;;;;;10314233;28;20166;-75
2022/09/30 11:13:09;;;;;;;9.45;2.00;;;;;;;;;;10315090;28;20103;-79
2022/09/30 11:18:09;;;;;;;2.28;1.08;;;;;;;;;;10316306;28;20026;-83
2022/09/30 11:23:13;;;;;;;3.53;1.38;;;;;;;;;;10318533;28;20030;-80
2022/09/30 11:28:18;;;;;;;8.15;1.92;;;;;;;;;;10319099;28;20026;-73
2022/09/30 11:33:21;;;;;;;7.22;1.52;;;;;;;;;;10316057;28;20559;-75
2022/09/30 11:38:34;;;;;;;5.82;2.55;;;;;;;;;;10316837;28;20057;-80
2022/09/30 11:43:46;;;;;;;4.20;2.10;;;;;;;;;;10317895;28;20617;-80
2022/09/30 11:48:58;;;;;;;4.10;1.85;;;;;;;;;;10316980;28;20054;-83
2022/09/30 11:54:08;;;;;;;3.30;1.80;;;;;;;;;;10316082;28;20095;-74
2022/09/30 11:59:27;;;;;;;4.28;1.77;;;;;;;;;;10331547;28;20481;-81
2022/09/30 12:04:33;;;;;;;4.20;1.63;;;;;;;;;;10315789;28;20089;-77
2022/09/30 12:09:41;;;;;;;7.10;1.83;;;;;;;;;;10316623;28;20477;-80
2022/09/30 12:14:41;;;;;;;4.20;1.83;;;;;;;;;;10332844;28;20058;-77
2022/09/30 12:19:46;;;;;;;4.28;2.13;;;;;;;;;;10315642;28;20492;-75
2022/09/30 12:24:47;;;;;;;5.60;1.83;;;;;;;;;;10316310;28;20409;-80
2022/09/30 12:30:16;;;;;;;4.53;2.20;;;;;;;;;;10315917;28;20057;-80
2022/09/30 12:35:24;;;;;;;2.53;1.80;;;;;;;;;;10314044;28;20461;-79
2022/09/30 12:40:38;;;;;;;6.28;1.70;;;;;;;;;;10316710;28;20460;-80
2022/09/30 12:45:44;;;;;;;5.22;1.40;;;;;;;;;;10314874;28;20076;-80
2022/09/30 12:50:47;;;;;;;2.67;1.30;;;;;;;;;;10313439;28;20026;-81
2022/09/30 12:55:47;;;;;;;2.80;1.58;;;;;;;;;;10315313;28;20022;-75
2022/09/30 13:01:04;;;;;;;4.90;1.40;;;;;;;;;;10314801;28;20088;-79
2022/09/30 13:06:05;;;;;;;5.45;1.80;;;;;;;;;;10330103;28;20276;-79
2022/09/30 13:11:06;;;;;;;5.13;2.25;;;;;;;;;;10315086;28;20023;-83
2022/09/30 13:16:08;;;;;;;4.47;1.20;;;;;;;;;;10315769;28;20018;-83
2022/09/30 13:21:09;;;;;;;4.50;1.48;;;;;;;;;;10322054;28;20110;-77
2022/09/30 13:26:22;;;;;;;2.83;1.40;;;;;;;;;;10312212;28;20054;-73
2022/09/30 13:31:23;;;;;;;4.53;1.30;;;;;;;;;;10310779;28;20201;-78
2022/09/30 13:36:25;;;;;;;2.88;1.20;;;;;;;;;;10310750;28;20026;-79
2022/09/30 13:41:25;;;;;;;4.90;1.00;;;;;;;;;;10323040;28;20026;-78
2022/09/30 13:46:34;;;;;;;2.47;1.35;;;;;;;;;;10324594;28;20022;-78
2022/09/30 13:51:34;;;;;;;1.27;1.10;;;;;;;;;;10311311;28;20028;-79
2022/09/30 13:56:36;;;;;;;1.50;1.27;;;;;;;;;;10295586;28;20019;-80
2022/09/30 14:01:42;;;;;;;3.50;1.25;;;;;;;;;;10332972;28;20905;-75
2022/09/30 14:06:54;;;;;;;4.70;1.00;;;;;;;;;;10318441;28;20105;-78
2022/09/30 14:11:58;;;;;;;3.15;1.10;;;;;;;;;;10315437;28;20493;-79
2022/09/30 14:17:04;;;;;;;5.25;1.00;;;;;;;;;;10317798;28;20036;-79
2022/09/30 14:22:05;;;;;;;4.20;2.13;;;;;;;;;;10332244;28;20068;-80
2022/09/30 14:27:09;;;;;;;3.42;0.90;;;;;;;;;;10316198;28;20034;-80
2022/09/30 14:32:10;;;;;;;2.40;1.02;;;;;;;;;;10315084;28;20077;-79
2022/09/30 14:37:29;;;;;;;6.97;1.23;;;;;;;;;;10316576;28;20018;-81
2022/09/30 14:42:37;;;;;;;4.32;1.77;;;;;;;;;;10314143;28;20024;-78
2022/09/30 14:47:37;;;;;;;;;;;;;;;;;;10312073;28;20022;-73
2022/09/30 14:52:40;;;;;;;2.90;1.13;;;;;;;;;;10318500;28;19917;-77
2022/09/30 14:57:42;;;;;;;6.18;2.13;;;;;;;;;;10318134;28;20535;-74
2022/09/30 15:02:43;;;;;;;5.85;1.38;;;;;;;;;;10318364;28;20511;-78
2022/09/30 15:07:43;;;;;;;6.03;1.40;;;;;;;;;;10315227;28;20037;-76
2022/09/30 15:12:44;;;;;;;20.83;2.93;;;;;;;;;;10315498;28;20434;-77
2022/09/30 15:17:44;;;;;;;12.35;2.40;;;;;;;;;;10317224;28;20036;-77
2022/09/30 15:22:44;;;;;;;4.00;1.33;;;;;;;;;;10318900;28;20030;-77
2022/09/30 15:27:45;;;;;;;10.48;1.80;;;;;;;;;;10317746;28;20817;-74
2022/09/30 15:32:46;;;;;;;2.87;1.67;;;;;;;;;;10319216;28;20129;-74
2022/09/30 15:37:47;;;;;;;7.63;2.33;;;;;;;;;;10317937;28;20018;-74
2022/09/30 15:43:01;;;;;;;11.23;1.88;;;;;;;;;;10318461;28;20073;-78
2022/09/30 15:48:15;;;;;;;3.15;1.92;;;;;;;;;;10315773;28;20026;-73
2022/09/30 15:53:23;;;;;;;5.13;2.22;;;;;;;;;;10317883;28;20030;-81
2022/09/30 15:58:23;;;;;;;;;;;;;;;;;;10315550;28;20018;-77
2022/09/30 16:03:25;;;;;;;5.10;1.95;;;;;;;;;;10316834;28;19916;-78
2022/09/30 16:08:27;;;;;;;5.85;1.80;;;;;;;;;;10315971;28;20018;-77
2022/09/30 16:13:29;;;;;;;11.55;2.10;;;;;;;;;;10299822;28;20022;-81
2022/09/30 16:18:30;;;;;;;4.20;2.17;;;;;;;;;;10299551;28;20539;-75
2022/09/30 16:23:34;;;;;;;14.98;4.47;;;;;;;;;;10315273;28;20022;-77
2022/09/30 16:28:34;;;;;;;3.45;1.75;;;;;;;;;;10315411;28;20212;-79
2022/09/30 16:33:37;;;;;;;2.33;1.73;;;;;;;;;;10315756;28;20037;-77
2022/09/30 16:38:37;;;;;;;9.77;2.92;;;;;;;;;;10316127;28;20057;-74
2022/09/30 16:43:38;;;;;;;13.63;2.33;;;;;;;;;;10315053;28;20110;-77
2022/09/30 16:48:38;;;;;;;8.55;2.22;;;;;;;;;;10322495;28;20092;-75
2022/09/30 16:53:39;;;;;;;6.53;2.20;;;;;;;;;;10315403;28;20025;-79
2022/09/30 16:58:39;;;;;;;10.50;3.28;;;;;;;;;;10314996;28;20037;-79
2022/09/30 17:03:39;;;;;;;13.65;5.10;;;;;;;;;;10298523;28;20516;-77
2022/09/30 17:08:40;;;;;;;10.43;3.20;;;;;;;;;;10312455;28;20630;-79
2022/09/30 17:13:41;;;;;;;8.85;3.08;;;;;;;;;;10315802;28;20018;-81
2022/09/30 17:18:41;;;;;;;7.80;2.60;;;;;;;;;;10315650;28;20018;-78
2022/09/30 17:23:41;;;;;;;8.30;2.55;;;;;;;;;;10314176;28;20386;-76
2022/09/30 17:28:42;;;;;;;6.33;2.10;;;;;;;;;;10312214;28;20117;-79
2022/09/30 17:33:42;;;;;;;6.03;2.65;;;;;;;;;;10317979;28;20031;-82
2022/09/30 17:38:42;;;;;;;6.60;2.95;;;;;;;;;;10308960;28;20026;-79
2022/09/30 17:43:44;;;;;;;9.10;3.40;;;;;;;;;;10306049;28;20041;-74
2022/09/30 17:48:45;;;;;;;10.68;3.72;;;;;;;;;;10306533;28;20104;-80
2022/09/30 17:53:45;;;;;;;6.07;3.40;;;;;;;;;;10307199;28;20499;-78
2022/09/30 17:58:47;;;;;;;6.00;2.90;;;;;;;;;;10311871;28;20014;-77
2022/09/30 18:03:51;;;;;;;7.30;3.00;;;;;;;;;;10311587;28;20281;-79
2022/09/30 18:08:51;;;;;;;5.55;3.00;;;;;;;;;;10308339;28;20023;-76
2022/09/30 18:13:53;;;;;;;12.18;3.67;;;;;;;;;;10320483;28;20034;-79
2022/09/30 18:18:54;;;;;;;19.42;4.18;;;;;;;;;;10317758;28;20084;-79
2022/09/30 18:23:58;;;;;;;16.20;4.00;;;;;;;;;;10319363;28;20049;-75
2022/09/30 18:28:58;;;;;;;10.77;4.57;;;;;;;;;;10312900;28;20937;-76
2022/09/30 18:33:59;;;;;;;8.50;2.97;;;;;;;;;;10310165;28;20030;-77
2022/09/30 18:38:59;;;;;;;7.57;3.33;;;;;;;;;;10312777;28;20110;-78
2022/09/30 18:44:01;;;;;;;10.32;3.67;;;;;;;;;;10312399;28;20495;-77
2022/09/30 18:49:01;;;;;;;9.23;3.72;;;;;;;;;;10622652;23;20709;-74
2022/09/30 18:54:04;;;;;;;6.35;2.97;;;;;;;;;;10236007;28;20035;-74
2022/09/30 18:59:04;;;;;;;11.32;4.63;;;;;;;;;;10232796;28;20026;-74
2022/09/30 19:04:05;;;;;;;6.37;2.70;;;;;;;;;;10244541;28;20054;-78
2022/09/30 19:09:08;;;;;;;5.00;2.80;;;;;;;;;;10246901;28;20086;-75
2022/09/30 19:14:09;;;;;;;6.53;2.85;;;;;;;;;;10244680;28;20122;-75
2022/09/30 19:19:10;;;;;;;7.63;3.25;;;;;;;;;;10232416;28;20030;-73
2022/09/30 19:24:10;;;;;;;6.60;3.17;;;;;;;;;;10235683;28;20493;-76
2022/09/30 19:29:10;;;;;;;4.43;2.70;;;;;;;;;;10230744;28;20442;-76
2022/09/30 19:34:11;;;;;;;5.23;2.60;;;;;;;;;;10227112;28;20024;-73
2022/09/30 19:39:11;;;;;;;9.63;2.90;;;;;;;;;;10227279;28;20285;-78
2022/09/30 19:44:14;;;;;;;7.05;2.88;;;;;;;;;;10230445;28;20450;-73
2022/09/30 19:49:15;;;;;;;5.13;2.95;;;;;;;;;;10229104;28;20425;-72
2022/09/30 19:54:15;;;;;;;11.30;3.72;;;;;;;;;;10229408;28;20029;-76
2022/09/30 19:59:15;;;;;;;12.85;3.50;;;;;;;;;;10230232;28;20042;-76
2022/09/30 20:04:18;;;;;;;8.17;3.27;;;;;;;;;;10231395;28;20042;-72
2022/09/30 20:09:18;;;;;;;16.95;3.50;;;;;;;;;;10232152;28;20127;-77
2022/09/30 20:19:38;;;;;;;15.95;3.85;;;;;;;;;;10233144;28;20027;-73
2022/09/30 20:24:38;;;;;;;9.47;3.17;;;;;;;;;;10231840;28;20027;-77
2022/09/30 20:29:39;;;;;;;8.70;3.88;;;;;;;;;;10232525;28;20130;-74
2022/09/30 20:34:40;;;;;;;18.52;4.60;;;;;;;;;;10228851;28;20061;-73
2022/09/30 20:39:41;;;;;;;10.90;3.90;;;;;;;;;;10231598;28;20418;-72
2022/09/30 20:44:42;;;;;;;10.35;9.30;;;;;;;;;;10233212;28;20034;-73
2022/09/30 20:49:43;;;;;;;8.68;5.07;;;;;;;;;;10228953;28;20055;-74
2022/09/30 20:54:43;;;;;;;9.67;3.70;;;;;;;;;;10230991;28;20490;-73
2022/09/30 20:59:44;;;;;;;11.63;5.15;;;;;;;;;;10229081;28;20023;-73
2022/09/30 21:04:44;;;;;;;7.18;4.22;;;;;;;;;;10232744;28;20033;-73
2022/09/30 21:09:44;;;;;;;11.35;3.83;;;;;;;;;;10239155;28;20035;-76
2022/09/30 21:14:44;;;;;;;11.43;4.03;;;;;;;;;;10239046;28;20023;-73
2022/09/30 21:19:45;;;;;;;12.43;5.77;;;;;;;;;;10243717;28;20023;-73
2022/09/30 21:24:46;;;;;;;7.00;4.50;;;;;;;;;;10233469;28;20493;-74
2022/09/30 21:29:46;;;;;;;8.38;5.47;;;;;;;;;;10239714;28;20501;-72
2022/09/30 21:34:47;;;;;;;18.23;4.53;;;;;;;;;;10237465;28;20082;-79
2022/09/30 21:39:47;;;;;;;15.52;4.47;;;;;;;;;;10237664;28;20090;-72
2022/09/30 21:44:47;;;;;;;12.10;8.47;;;;;;;;;;10239560;28;20035;-79
2022/09/30 21:49:48;;;;;;;12.67;5.03;;;;;;;;;;10233983;28;20051;-74
2022/09/30 21:54:50;;;;;;;6.75;4.43;;;;;;;;;;10235291;28;20035;-74
2022/09/30 21:59:51;;;;;;;10.13;4.90;;;;;;;;;;10247255;28;20034;-77
2022/09/30 22:04:51;;;;;;;16.30;4.95;;;;;;;;;;10236959;28;20061;-78
2022/09/30 22:09:51;;;;;;;9.15;5.03;;;;;;;;;;10236303;28;20458;-79
2022/09/30 22:14:51;;;;;;;11.13;5.75;;;;;;;;;;10237681;28;20045;-74
2022/09/30 22:19:54;;;;;;;12.07;5.47;;;;;;;;;;10236041;28;20035;-75
2022/09/30 22:24:54;;;;;;;11.55;5.15;;;;;;;;;;10240848;28;20150;-76
2022/09/30 22:29:54;;;;;;;8.60;4.20;;;;;;;;;;10235808;28;20030;-79
2022/09/30 22:40:14;;;;;;;13.02;6.50;;;;;;;;;;10241603;28;20059;-74
2022/09/30 22:45:14;;;;;;;7.88;4.78;;;;;;;;;;10238457;28;20118;-77
2022/09/30 22:50:14;;;;;;;8.13;5.65;;;;;;;;;;10239780;28;20047;-80
2022/09/30 22:55:15;;;;;;;9.87;5.07;;;;;;;;;;10241229;28;20509;-79
2022/09/30 23:00:15;;;;;;;8.57;6.97;;;;;;;;;;10239685;28;20019;-79
2022/09/30 23:05:16;;;;;;;12.80;5.13;;;;;;;;;;10237561;28;20027;-79
2022/09/30 23:10:16;;;;;;;6.80;4.32;;;;;;;;;;10238118;28;20274;-76
2022/09/30 23:15:16;;;;;;;6.20;4.47;;;;;;;;;;10239119;28;20027;-79
2022/09/30 23:20:16;;;;;;;18.77;16.02;;;;;;;;;;10237606;28;20019;-79
2022/09/30 23:25:17;;;;;;;97.07;91.57;;;;;;;;;;10238105;28;20034;-82
2022/09/30 23:30:17;;;;;;;9.73;7.85;;;;;;;;;;10237356;28;20030;-79
2022/09/30 23:35:17;;;;;;;8.65;4.88;;;;;;;;;;10237805;28;20090;-75
2022/09/30 23:40:17;;;;;;;14.20;5.17;;;;;;;;;;10237879;28;20019;-78
2022/09/30 23:45:18;;;;;;;20.15;5.28;;;;;;;;;;10239328;28;20501;-78
2022/09/30 23:50:18;;;;;;;8.50;5.32;;;;;;;;;;10238289;28;20829;-76
2022/09/30 23:55:18;;;;;;;8.55;4.57;;;;;;;;;;10238643;28;20106;-75
